Time;durP1;ratioP1;P1;durP2;ratioP2;P2;SDS_P1;SDS_P2;PMS_P1;PMS_P2;Temp;Humidity;BMP_temperature;BMP_pressure;BME280_temperature;BME280_humidity;BME280_pressure;Samples;Min_cycle;Max_cycle;Signal;HPM_P1;HPM_P2
2023/10/10 00:03:42;;;;;;;2.15;1.08;;;;;;;21.98;100.00;102003.06;10456858;28;20033;-76
2023/10/10 00:08:44;;;;;;;0.10;0.10;;;;;;;22.49;100.00;102015.97;10440934;28;20499;-75
2023/10/10 00:13:47;;;;;;;0.20;0.20;;;;;;;22.19;100.00;102007.34;10440434;28;20049;-76
2023/10/10 00:18:55;;;;;;;0.10;0.10;;;;;;;22.22;100.00;102016.09;10456837;28;20420;-76
2023/10/10 00:23:57;;;;;;;0.15;0.15;;;;;;;21.99;100.00;102014.44;10439811;28;20432;-75
2023/10/10 00:29:00;;;;;;;0.60;0.30;;;;;;;22.10;100.00;102009.16;10456210;28;20053;-76
2023/10/10 00:34:02;;;;;;;6.47;0.75;;;;;;;21.80;100.00;102008.38;10440060;28;20037;-75
2023/10/10 00:44:16;;;;;;;0.68;0.32;;;;;;;21.57;100.00;102001.47;10456137;28;20064;-75
2023/10/10 00:49:23;;;;;;;0.22;0.20;;;;;;;21.29;100.00;101997.97;10455277;28;20068;-75
2023/10/10 00:54:26;;;;;;;0.45;0.43;;;;;;;20.84;100.00;101993.63;10455320;28;20136;-76
2023/10/10 00:59:48;;;;;;;1.08;0.63;;;;;;;21.40;100.00;101983.13;10439212;28;20053;-75
2023/10/10 01:10:07;;;;;;;0.55;0.52;;;;;;;20.86;100.00;101976.19;10447422;28;20069;-76
2023/10/10 01:20:45;;;;;;;2.50;0.47;;;;;;;21.19;100.00;101969.16;10456225;28;20053;-75
2023/10/10 01:25:48;;;;;;;0.10;0.10;;;;;;;21.53;100.00;101968.22;10453670;28;20045;-75
2023/10/10 01:30:57;;;;;;;0.70;0.28;;;;;;;21.24;100.00;101956.94;10447803;28;20041;-75
2023/10/10 01:35:59;;;;;;;0.38;0.25;;;;;;;21.09;100.00;101954.34;10438090;28;20480;-75
2023/10/10 01:41:05;;;;;;;0.28;0.25;;;;;;;21.29;100.00;101956.94;10437684;28;20136;-75
2023/10/10 01:46:16;;;;;;;2.67;0.90;;;;;;;20.68;100.00;101955.19;10453233;28;20095;-75
2023/10/10 01:51:19;;;;;;;1.52;0.82;;;;;;;21.00;100.00;101951.72;10440795;28;20084;-75
2023/10/10 01:56:22;;;;;;;1.10;0.32;;;;;;;20.72;100.00;101954.31;10450879;28;20064;-75
2023/10/10 02:01:24;;;;;;;1.73;1.13;;;;;;;20.14;100.00;101937.69;10459233;28;20127;-75
2023/10/10 02:06:28;;;;;;;7.68;0.82;;;;;;;20.06;100.00;101929.78;10462653;28;20045;-75
2023/10/10 02:11:31;;;;;;;0.85;0.63;;;;;;;21.08;100.00;101945.59;10446152;28;20041;-75
2023/10/10 02:16:39;;;;;;;0.13;0.13;;;;;;;21.46;100.00;101946.41;10445616;28;20404;-75
2023/10/10 02:21:43;;;;;;;1.23;1.13;;;;;;;21.22;100.00;101942.97;10445201;28;20045;-75
2023/10/10 02:26:51;;;;;;;1.17;1.08;;;;;;;20.81;100.00;101922.03;10461606;28;20053;-75
2023/10/10 02:32:06;;;;;;;1.75;0.75;;;;;;;20.57;100.00;101935.13;10461717;28;20037;-75
2023/10/10 02:42:23;;;;;;;0.10;0.10;;;;;;;21.21;100.00;101930.72;10461388;28;20056;-75
2023/10/10 02:47:32;;;;;;;0.10;0.10;;;;;;;21.19;100.00;101922.00;10460888;28;20136;-75
2023/10/10 02:52:38;;;;;;;0.67;0.53;;;;;;;21.15;100.00;101925.50;10460671;28;20094;-78
2023/10/10 02:57:41;;;;;;;0.10;0.10;;;;;;;20.77;100.00;101923.78;10460494;28;20053;-78
2023/10/10 03:02:49;;;;;;;0.28;0.28;;;;;;;20.90;100.00;101925.53;10461534;28;20481;-78
2023/10/10 03:07:55;;;;;;;0.45;0.10;;;;;;;20.66;100.00;101925.53;10444121;28;20447;-78
2023/10/10 03:13:13;;;;;;;0.75;0.45;;;;;;;20.05;100.00;101920.19;10442508;28;20136;-78
2023/10/10 03:18:18;;;;;;;0.35;0.20;;;;;;;20.52;100.00;101923.75;10460117;28;20049;-78
2023/10/10 03:23:32;;;;;;;0.25;0.13;;;;;;;20.34;100.00;101913.28;10459875;28;20044;-78
2023/10/10 03:28:41;;;;;;;0.70;0.30;;;;;;;19.95;100.00;101911.44;10459742;28;20055;-78
2023/10/10 05:25:31;;;;;;;0.98;0.75;;;;;;;20.08;100.00;101838.22;10459204;28;20072;-79
2023/10/10 05:30:42;;;;;;;1.65;1.08;;;;;;;19.68;100.00;101825.06;10407538;28;20049;-79
2023/10/10 05:35:48;;;;;;;2.90;0.98;;;;;;;19.70;100.00;101825.91;10417477;28;20042;-79
2023/10/10 05:40:51;;;;;;;1.25;0.95;;;;;;;18.89;100.00;101809.88;10431110;28;20054;-79
2023/10/10 05:45:56;;;;;;;1.80;1.67;;;;;;;19.41;100.00;101809.28;10439591;28;20049;-79
2023/10/10 05:51:03;;;;;;;2.95;1.65;;;;;;;19.30;100.00;101795.31;10439506;28;20515;-79
2023/10/10 05:56:15;;;;;;;4.22;1.67;;;;;;;19.65;100.00;101791.94;10456765;28;20075;-79
2023/10/10 06:01:18;;;;;;;4.93;1.88;;;;;;;19.68;100.00;101793.69;10457040;28;20040;-78
2023/10/10 06:06:21;;;;;;;3.10;1.48;;;;;;;19.19;100.00;101790.03;10439279;28;20048;-80
2023/10/10 06:11:24;;;;;;;1.45;1.25;;;;;;;19.86;100.00;101785.91;10438917;28;20049;-79
2023/10/10 06:16:26;;;;;;;3.45;2.47;;;;;;;19.62;100.00;101787.56;10455178;28;20053;-79
2023/10/10 06:21:29;;;;;;;3.75;1.75;;;;;;;19.71;100.00;101796.28;10455972;28;20052;-79
2023/10/10 06:26:31;;;;;;;3.47;2.05;;;;;;;19.43;100.00;101791.00;10454603;28;20410;-78
2023/10/10 06:31:34;;;;;;;6.47;2.22;;;;;;;19.27;100.00;101780.50;10454631;28;20045;-79
2023/10/10 06:36:37;;;;;;;4.53;1.92;;;;;;;19.02;100.00;101769.94;10454381;28;20053;-79
2023/10/10 06:41:41;;;;;;;4.15;2.15;;;;;;;20.09;100.00;101793.78;10456159;28;20049;-79
2023/10/10 06:46:48;;;;;;;13.77;2.33;;;;;;;19.84;100.00;101792.88;10456814;28;20550;-79
2023/10/10 06:51:55;;;;;;;4.68;3.17;;;;;;;19.63;100.00;101784.06;10445251;28;20048;-79
2023/10/10 07:02:20;;;;;;;8.63;4.65;;;;;;;19.52;100.00;101770.13;10463857;28;20033;-79
2023/10/10 07:07:21;;;;;;;3.58;3.15;;;;;;;20.07;100.00;101786.78;10461525;28;20554;-79
2023/10/10 07:12:24;;;;;;;3.53;3.22;;;;;;;20.50;100.00;101805.09;10461038;28;20041;-79
2023/10/10 07:17:28;;;;;;;7.65;3.60;;;;;;;20.07;100.00;101795.50;10460981;28;20047;-79
2023/10/10 07:22:33;;;;;;;8.52;5.05;;;;;;;20.42;100.00;101804.25;10460662;28;20068;-78
2023/10/10 07:27:39;;;;;;;3.00;2.40;;;;;;;21.15;100.00;101820.69;10444136;28;20049;-78
2023/10/10 07:32:48;;;;;;;4.05;2.28;;;;;;;20.59;100.00;101820.78;10460694;28;20101;-78
2023/10/10 07:37:52;;;;;;;8.23;3.22;;;;;;;20.59;100.00;101820.78;10461037;28;20049;-79
2023/10/10 07:42:58;;;;;;;3.72;2.72;;;;;;;20.28;100.00;101814.69;10443465;28;20143;-79
2023/10/10 07:48:54;;;;;;;6.38;2.63;;;;;;;21.29;100.00;101814.53;10457051;28;20384;-78
2023/10/10 07:54:28;;;;;;;3.28;2.47;;;;;;;21.23;100.00;101823.28;10458981;28;20044;-78
2023/10/10 07:59:20;;;;;;;3.92;2.15;;;;;;;20.35;100.00;101823.44;10456720;28;20512;-78
2023/10/10 08:04:22;;;;;;;5.50;2.40;;;;;;;20.96;100.00;101821.63;10457985;28;20067;-79
2023/10/10 08:09:24;;;;;;;2.05;1.65;;;;;;;20.49;100.00;101813.84;10457588;28;20045;-78
2023/10/10 08:14:31;;;;;;;5.88;1.88;;;;;;;20.54;100.00;101812.06;10457407;28;20044;-79
2023/10/10 08:19:33;;;;;;;2.60;1.45;;;;;;;20.71;100.00;101813.78;10457297;28;20052;-77
2023/10/10 08:24:35;;;;;;;4.05;1.77;;;;;;;21.26;100.00;101817.16;10440143;28;20502;-79
2023/10/10 08:29:38;;;;;;;6.38;2.47;;;;;;;21.05;100.00;101806.75;10456658;28;20036;-78
2023/10/10 08:34:42;;;;;;;2.38;1.42;;;;;;;21.97;100.00;101798.44;10456828;28;20059;-79
2023/10/10 08:39:49;;;;;;;2.05;1.13;;;;;;;22.12;100.00;101800.94;10449293;28;20071;-79
2023/10/10 08:44:55;;;;;;;2.72;1.90;;;;;;;21.78;100.00;101795.06;10440093;28;20044;-79
2023/10/10 08:49:57;;;;;;;3.20;2.05;;;;;;;21.87;100.00;101790.63;10455717;28;20381;-78
2023/10/10 08:55:01;;;;;;;3.00;1.20;;;;;;;22.07;100.00;101796.59;10438324;28;20075;-78
2023/10/10 09:00:06;;;;;;;3.60;1.63;;;;;;;21.93;100.00;101794.09;10456965;28;20045;-78
2023/10/10 09:05:12;;;;;;;4.10;1.90;;;;;;;22.50;100.00;101796.25;10429593;28;20052;-78
2023/10/10 09:10:14;;;;;;;4.35;1.42;;;;;;;21.94;100.00;101785.31;10424892;28;20053;-79
2023/10/10 09:15:16;;;;;;;3.60;1.50;;;;;;;21.50;100.00;101797.81;10456229;28;20056;-78
2023/10/10 09:20:23;;;;;;;1.73;1.10;;;;;;;22.35;100.00;101807.75;10454547;28;20492;-79
2023/10/10 09:25:31;;;;;;;0.80;0.60;;;;;;;22.29;100.00;101798.16;10436124;28;20483;-78
2023/10/10 09:30:49;;;;;;;4.32;2.10;;;;;;;22.42;100.00;101795.44;10436059;28;20143;-78
2023/10/10 09:36:09;;;;;;;4.15;0.85;;;;;;;22.68;100.00;101792.56;10454215;28;20041;-78
2023/10/10 09:46:59;;;;;;;2.17;1.75;;;;;;;22.85;100.00;101786.25;10453312;28;20519;-78
2023/10/10 09:57:26;;;;;;;1.88;1.48;;;;;;;22.92;100.00;101801.06;10440641;28;20045;-78
2023/10/10 10:02:40;;;;;;;5.20;2.50;;;;;;;22.97;100.00;101791.38;10436757;28;20045;-78
2023/10/10 10:08:09;;;;;;;2.55;1.85;;;;;;;24.23;100.00;101793.16;10453882;28;20381;-77
2023/10/10 10:13:40;;;;;;;5.80;2.83;;;;;;;24.18;100.00;101787.97;10453550;28;20594;-77
2023/10/10 10:18:45;;;;;;;3.50;1.05;;;;;;;24.61;100.00;101783.66;10424045;28;20041;-77
2023/10/10 10:23:55;;;;;;;1.25;1.05;;;;;;;24.12;100.00;101780.16;10443563;28;20068;-78
2023/10/10 10:28:57;;;;;;;1.60;1.27;;;;;;;24.53;100.00;101780.31;10459659;28;20500;-77
2023/10/10 10:34:10;;;;;;;4.57;1.55;;;;;;;24.49;100.00;101783.91;10461086;28;20411;-77
2023/10/10 10:39:23;;;;;;;2.22;1.50;;;;;;;24.84;100.00;101775.34;10440223;28;20417;-78
2023/10/10 10:44:44;;;;;;;1.00;0.90;;;;;;;25.26;100.00;101781.50;10472734;28;20052;-78
2023/10/10 10:49:54;;;;;;;1.80;1.10;;;;;;;24.75;100.00;101772.91;10453262;28;20045;-77
2023/10/10 10:55:18;;;;;;;;;;;;;;;25.24;100.00;101770.16;10443831;28;20069;-78
2023/10/10 11:00:40;;;;;;;1.77;1.08;;;;;;;25.32;100.00;101771.72;10447518;28;19948;-77
2023/10/10 11:05:42;;;;;;;6.82;1.15;;;;;;;26.11;100.00;101771.66;10426577;28;20056;-77
2023/10/10 11:10:46;;;;;;;1.88;1.65;;;;;;;25.61;100.00;101772.00;10460402;28;20416;-76
2023/10/10 11:15:48;;;;;;;1.70;1.23;;;;;;;25.47;100.00;101761.75;10409959;28;20055;-76
2023/10/10 11:20:57;;;;;;;0.65;0.63;;;;;;;28.03;100.00;101752.84;10456509;28;20055;-77
2023/10/10 11:26:00;;;;;;;1.13;0.80;;;;;;;26.48;100.00;101748.69;10459717;28;20053;-77
2023/10/10 11:31:07;;;;;;;1.58;1.13;;;;;;;26.85;100.00;101753.81;10451767;28;20048;-77
2023/10/10 11:36:21;;;;;;;1.15;0.77;;;;;;;27.47;100.00;101743.22;10457059;28;20045;-76
2023/10/10 11:41:30;;;;;;;0.70;0.70;;;;;;;27.61;100.00;101732.16;10442563;28;20048;-76
2023/10/10 11:46:33;;;;;;;1.92;1.10;;;;;;;27.21;100.00;101728.97;10459132;28;20037;-77
2023/10/10 11:51:36;;;;;;;2.50;0.73;;;;;;;26.28;100.00;101721.06;10448429;28;20040;-78
2023/10/10 11:56:38;;;;;;;3.03;0.60;;;;;;;25.71;100.00;101719.84;10457533;28;20492;-77
2023/10/10 12:01:51;;;;;;;2.05;1.42;;;;;;;26.15;100.00;101725.81;10451829;28;20045;-77
2023/10/10 12:06:55;;;;;;;1.75;0.77;;;;;;;26.66;100.00;101720.88;10452221;28;20487;-76
2023/10/10 12:12:06;;;;;;;3.13;1.17;;;;;;;26.05;100.00;101708.41;10427016;28;20079;-76
2023/10/10 12:17:08;;;;;;;0.75;0.60;;;;;;;26.40;100.00;101704.88;10453876;28;20044;-76
2023/10/10 12:22:11;;;;;;;1.73;0.93;;;;;;;25.95;100.00;101707.81;10456929;28;20072;-77
2023/10/10 12:27:14;;;;;;;1.23;1.00;;;;;;;26.38;100.00;101685.53;10457026;28;20569;-77
2023/10/10 12:32:18;;;;;;;1.83;1.67;;;;;;;26.46;100.00;101687.97;10437330;28;20060;-77
2023/10/10 12:37:23;;;;;;;0.90;0.55;;;;;;;26.22;100.00;101686.88;10456594;28;20049;-77
2023/10/10 12:42:25;;;;;;;3.67;1.92;;;;;;;25.75;100.00;101684.56;10455960;28;20072;-77
2023/10/10 12:47:31;;;;;;;12.10;1.15;;;;;;;25.85;100.00;101672.88;10454474;28;20529;-76
2023/10/10 12:52:45;;;;;;;1.10;0.93;;;;;;;26.98;100.00;101669.72;10456173;28;20040;-77
2023/10/10 12:57:48;;;;;;;1.17;0.52;;;;;;;26.56;100.00;101673.56;10454687;28;20064;-77
2023/10/10 13:02:50;;;;;;;1.55;0.73;;;;;;;26.61;100.00;101660.22;10454792;28;20091;-77
2023/10/10 13:07:58;;;;;;;1.38;0.63;;;;;;;27.15;100.00;101658.59;10455187;28;20045;-77
2023/10/10 13:13:02;;;;;;;1.25;1.00;;;;;;;27.26;100.00;101652.13;10455155;28;20041;-77
2023/10/10 13:18:19;;;;;;;1.55;0.68;;;;;;;27.19;100.00;101652.31;10453790;28;20485;-77
2023/10/10 13:23:21;;;;;;;4.03;1.00;;;;;;;26.55;100.00;101655.97;10438135;28;20132;-78
2023/10/10 13:28:23;;;;;;;1.25;0.82;;;;;;;27.16;100.00;101655.06;10454271;28;20090;-77
2023/10/10 13:33:25;;;;;;;2.70;1.50;;;;;;;26.73;100.00;101659.84;10437829;28;20076;-78
2023/10/10 13:38:27;;;;;;;2.42;1.05;;;;;;;27.17;100.00;101654.16;10438060;28;20446;-78
2023/10/10 13:43:29;;;;;;;0.73;0.60;;;;;;;26.43;100.00;101651.94;10454162;28;20041;-78
2023/10/10 13:48:30;;;;;;;1.58;1.48;;;;;;;26.30;100.00;101653.19;10454576;28;20126;-77
2023/10/10 13:53:33;;;;;;;2.17;1.35;;;;;;;26.91;100.00;101653.19;10454240;28;20076;-77
2023/10/10 13:58:40;;;;;;;1.98;0.88;;;;;;;26.31;100.00;101651.44;10460518;28;20056;-76
2023/10/10 14:03:46;;;;;;;2.70;1.17;;;;;;;26.64;100.00;101648.69;10426687;28;20069;-78
2023/10/10 14:08:49;;;;;;;4.53;0.82;;;;;;;26.12;100.00;101641.38;10462239;28;20045;-77
2023/10/10 14:13:54;;;;;;;0.38;0.30;;;;;;;26.59;100.00;101632.97;10461520;28;20138;-77
2023/10/10 14:18:56;;;;;;;0.63;0.40;;;;;;;26.67;100.00;101628.31;10461879;28;20431;-76
2023/10/10 14:24:13;;;;;;;2.08;1.05;;;;;;;26.45;100.00;101628.97;10461153;28;20099;-77
2023/10/10 14:29:16;;;;;;;1.17;0.60;;;;;;;27.06;100.00;101627.19;10458376;28;20116;-77
2023/10/10 14:34:24;;;;;;;1.38;0.30;;;;;;;26.66;100.00;101609.88;10444237;28;20107;-76
2023/10/10 14:39:31;;;;;;;1.13;0.45;;;;;;;26.89;100.00;101596.84;10460938;28;20045;-77
2023/10/10 14:44:33;;;;;;;0.35;0.30;;;;;;;26.47;100.00;101605.16;10447510;28;20056;-77
2023/10/10 14:49:38;;;;;;;1.65;1.27;;;;;;;26.94;100.00;101604.66;10460249;28;20041;-76
2023/10/10 14:54:48;;;;;;;0.65;0.40;;;;;;;26.40;100.00;101604.47;10460259;28;20040;-77
2023/10/10 14:59:55;;;;;;;0.93;0.85;;;;;;;26.34;100.00;101593.22;10448731;28;20506;-77
2023/10/10 15:05:03;;;;;;;1.13;0.80;;;;;;;25.75;100.00;101584.28;10459978;28;20041;-78
2023/10/10 15:10:06;;;;;;;0.82;0.68;;;;;;;26.53;100.00;101593.53;10458332;28;20479;-77
2023/10/10 15:15:08;;;;;;;0.90;0.70;;;;;;;26.60;100.00;101584.50;10447824;28;20067;-77
2023/10/10 15:20:14;;;;;;;7.22;0.98;;;;;;;26.47;100.00;101591.97;10461028;28;20041;-77
2023/10/10 15:25:15;;;;;;;0.77;0.40;;;;;;;25.98;100.00;101581.88;10442727;28;20555;-77
2023/10/10 15:30:17;;;;;;;0.90;0.90;;;;;;;26.22;100.00;101574.19;10459272;28;20058;-77
2023/10/10 15:35:20;;;;;;;0.45;0.25;;;;;;;26.60;100.00;101564.25;10442424;28;20080;-77
2023/10/10 15:40:22;;;;;;;1.48;0.75;;;;;;;26.61;100.00;101559.81;10459233;28;20489;-77
2023/10/10 15:45:24;;;;;;;0.65;0.65;;;;;;;26.56;100.00;101562.59;10442640;28;20095;-77
2023/10/10 15:50:26;;;;;;;0.20;0.20;;;;;;;26.65;100.00;101565.88;10457964;28;20069;-77
2023/10/10 15:55:32;;;;;;;1.10;0.30;;;;;;;26.20;100.00;101565.44;10430315;28;20041;-77
2023/10/10 16:00:35;;;;;;;0.15;0.15;;;;;;;26.08;100.00;101560.53;10447434;28;20040;-77
2023/10/10 16:05:44;;;;;;;0.20;0.20;;;;;;;25.71;100.00;101559.75;10441067;28;20488;-77
2023/10/10 16:10:46;;;;;;;0.35;0.20;;;;;;;25.41;100.00;101558.78;10451243;28;20076;-77
2023/10/10 16:15:48;;;;;;;0.40;0.28;;;;;;;25.30;100.00;101551.13;10447298;28;20102;-77
2023/10/10 16:20:52;;;;;;;0.75;0.30;;;;;;;24.93;100.00;101550.25;10457274;28;20037;-77
2023/10/10 16:25:54;;;;;;;4.97;1.52;;;;;;;24.64;100.00;101545.66;10457954;28;20041;-76
2023/10/10 16:30:55;;;;;;;1.17;0.73;;;;;;;24.53;100.00;101545.91;10439822;28;20040;-77
2023/10/10 16:35:59;;;;;;;0.55;0.38;;;;;;;24.61;100.00;101545.72;10439080;28;20069;-77
2023/10/10 16:41:08;;;;;;;1.65;0.38;;;;;;;24.73;100.00;101547.22;10455132;28;20056;-77
2023/10/10 16:46:10;;;;;;;0.57;0.30;;;;;;;24.27;100.00;101544.69;10456734;28;20083;-77
2023/10/10 16:51:15;;;;;;;0.68;0.68;;;;;;;23.83;100.00;101549.06;10455146;28;20044;-77
2023/10/10 16:56:20;;;;;;;1.13;0.63;;;;;;;23.69;100.00;101544.94;10455093;28;20041;-77
2023/10/10 17:01:23;;;;;;;0.52;0.28;;;;;;;23.30;100.00;101536.88;10438739;28;20094;-77
2023/10/10 17:06:27;;;;;;;1.98;1.05;;;;;;;23.44;100.00;101532.22;10455513;28;20041;-77
2023/10/10 17:11:29;;;;;;;0.03;0.03;;;;;;;23.40;100.00;101525.31;10455734;28;20053;-77
2023/10/10 17:16:33;;;;;;;1.70;1.27;;;;;;;23.45;100.00;101527.84;10455213;28;20132;-77
2023/10/10 17:21:35;;;;;;;1.00;0.47;;;;;;;23.20;100.00;101525.66;10456363;28;20049;-77
2023/10/10 17:26:37;;;;;;;1.92;1.00;;;;;;;23.10;100.00;101519.66;10452618;28;20040;-77
2023/10/10 17:31:40;;;;;;;0.73;0.40;;;;;;;23.20;100.00;101516.88;10454545;28;20505;-78
2023/10/10 17:36:43;;;;;;;0.13;0.13;;;;;;;23.57;100.00;101508.31;10455067;28;20044;-77
2023/10/10 17:41:47;;;;;;;0.82;0.70;;;;;;;23.11;100.00;101505.63;10454806;28;20049;-77
2023/10/10 17:46:52;;;;;;;1.20;0.47;;;;;;;22.96;100.00;101506.72;10455130;28;20040;-77
2023/10/10 17:51:54;;;;;;;0.45;0.20;;;;;;;22.93;100.00;101501.53;10454781;28;20044;-77
2023/10/10 17:56:57;;;;;;;0.73;0.45;;;;;;;22.82;100.00;101503.44;10438159;28;20048;-77
2023/10/10 18:01:59;;;;;;;1.30;0.98;;;;;;;22.45;100.00;101496.13;10454663;28;20459;-77
2023/10/10 18:07:03;;;;;;;0.90;0.40;;;;;;;22.56;100.00;101496.84;10438010;28;20045;-78
2023/10/10 18:12:05;;;;;;;4.80;1.17;;;;;;;22.33;100.00;101498.03;10453852;28;20052;-77
2023/10/10 18:17:10;;;;;;;1.55;0.60;;;;;;;22.35;100.00;101490.13;10437731;28;20045;-77
2023/10/10 18:22:11;;;;;;;0.52;0.52;;;;;;;22.77;100.00;101490.38;10411363;28;20422;-77
2023/10/10 18:27:14;;;;;;;0.80;0.50;;;;;;;22.61;100.00;101488.88;10453895;28;20091;-77
2023/10/10 18:32:16;;;;;;;0.90;0.65;;;;;;;22.57;100.00;101476.69;10437521;28;20099;-77
2023/10/10 18:37:17;;;;;;;3.30;0.70;;;;;;;22.28;100.00;101475.34;10453730;28;20041;-77
2023/10/10 18:42:20;;;;;;;0.30;0.30;;;;;;;22.25;100.00;101470.13;10457463;28;20503;-77
2023/10/10 18:47:21;;;;;;;0.95;0.50;;;;;;;22.44;100.00;101461.16;10445281;28;20043;-77
2023/10/10 18:52:23;;;;;;;1.58;0.82;;;;;;;22.15;100.00;101459.75;10461192;28;20049;-77
2023/10/10 18:57:25;;;;;;;1.77;0.93;;;;;;;21.83;100.00;101445.31;10461145;28;20383;-76
2023/10/10 19:02:26;;;;;;;11.20;1.30;;;;;;;21.82;100.00;101440.94;10444120;28;20045;-77
2023/10/10 19:07:28;;;;;;;2.40;0.38;;;;;;;21.98;100.00;101427.63;10461819;28;20048;-77
2023/10/10 19:12:30;;;;;;;1.02;0.50;;;;;;;22.06;100.00;101422.28;10460439;28;20396;-77
2023/10/10 19:17:32;;;;;;;0.20;0.13;;;;;;;22.00;100.00;101428.50;10460124;28;20053;-78
2023/10/10 19:22:34;;;;;;;0.17;0.17;;;;;;;22.23;100.00;101427.31;10459811;28;20126;-77
2023/10/10 19:27:35;;;;;;;1.40;0.63;;;;;;;21.84;100.00;101420.81;10439175;28;20051;-78
2023/10/10 19:32:37;;;;;;;0.98;0.35;;;;;;;22.37;100.00;101417.47;10460879;28;20572;-76
2023/10/10 19:37:42;;;;;;;0.68;0.52;;;;;;;22.32;100.00;101414.91;10459434;28;20076;-77
2023/10/10 19:42:49;;;;;;;2.72;1.02;;;;;;;22.38;100.00;101411.28;10442387;28;20060;-76
2023/10/10 19:48:02;;;;;;;0.73;0.60;;;;;;;22.26;100.00;101408.88;10458730;28;20041;-77
2023/10/10 19:53:05;;;;;;;0.08;0.08;;;;;;;22.53;100.00;101404.09;10459051;28;20373;-77
2023/10/10 19:58:09;;;;;;;1.90;1.15;;;;;;;22.37;100.00;101406.97;10441648;28;20041;-77
2023/10/10 20:03:13;;;;;;;0.82;0.60;;;;;;;22.82;100.00;101401.84;10443933;28;20061;-77
2023/10/10 20:08:15;;;;;;;0.40;0.38;;;;;;;23.05;100.00;101394.47;10457342;28;20052;-76
2023/10/10 20:13:17;;;;;;;1.13;0.60;;;;;;;23.19;100.00;101387.22;10440771;28;20049;-77
2023/10/10 20:18:20;;;;;;;0.40;0.40;;;;;;;23.18;100.00;101392.53;10457177;28;20049;-77
2023/10/10 20:23:22;;;;;;;0.98;0.73;;;;;;;23.10;100.00;101393.50;10444008;28;20049;-76
2023/10/10 20:28:25;;;;;;;0.75;0.40;;;;;;;22.80;100.00;101395.78;10456247;28;20041;-76
2023/10/10 20:33:27;;;;;;;1.83;0.63;;;;;;;23.03;100.00;101386.63;10439991;28;20053;-77
2023/10/10 20:38:30;;;;;;;0.93;0.20;;;;;;;23.10;100.00;101395.25;10455770;28;20037;-76
2023/10/10 20:43:32;;;;;;;0.47;0.25;;;;;;;23.18;100.00;101384.63;10455759;28;20045;-76
2023/10/10 20:48:34;;;;;;;0.47;0.30;;;;;;;22.98;100.00;101377.94;10438614;28;20041;-76
2023/10/10 20:53:36;;;;;;;0.47;0.32;;;;;;;22.96;100.00;101385.00;10455347;28;20048;-76
2023/10/10 20:58:38;;;;;;;2.50;1.27;;;;;;;22.97;100.00;101378.88;10432028;28;20095;-77
2023/10/10 21:03:40;;;;;;;0.63;0.50;;;;;;;23.01;100.00;101375.28;10454600;28;20496;-77
2023/10/10 21:08:42;;;;;;;0.43;0.30;;;;;;;22.91;100.00;101371.06;10428834;28;20051;-76
2023/10/10 21:13:46;;;;;;;0.40;0.17;;;;;;;22.92;100.00;101357.94;10439219;28;20053;-77
2023/10/10 21:18:48;;;;;;;1.50;0.30;;;;;;;22.43;100.00;101367.53;10455564;28;20068;-77
2023/10/10 21:23:52;;;;;;;5.03;1.65;;;;;;;23.07;100.00;101355.91;10455454;28;20095;-76
2023/10/10 21:28:54;;;;;;;0.20;0.20;;;;;;;23.16;100.00;101354.84;10456286;28;20403;-77
2023/10/10 21:33:56;;;;;;;0.20;0.08;;;;;;;23.23;100.00;101356.50;10455343;28;20045;-76
2023/10/10 21:38:59;;;;;;;1.25;0.65;;;;;;;23.28;100.00;101349.38;10438357;28;20050;-76
2023/10/10 21:44:02;;;;;;;0.68;0.68;;;;;;;23.12;100.00;101349.63;10438052;28;20095;-77
2023/10/10 21:49:04;;;;;;;0.75;0.60;;;;;;;23.40;100.00;101343.88;10454784;28;20502;-76
2023/10/10 21:54:06;;;;;;;0.30;0.10;;;;;;;23.05;100.00;101348.03;10451340;28;20056;-77
2023/10/10 21:59:09;;;;;;;0.28;0.25;;;;;;;23.20;100.00;101351.28;10454125;28;20543;-76
2023/10/10 22:04:11;;;;;;;0.63;0.30;;;;;;;22.98;100.00;101347.28;10454827;28;20049;-76
2023/10/10 22:09:16;;;;;;;0.50;0.47;;;;;;;23.31;100.00;101341.44;10438365;28;20048;-76
2023/10/10 22:14:19;;;;;;;0.45;0.20;;;;;;;22.97;100.00;101339.44;10454504;28;20424;-77
2023/10/10 22:19:23;;;;;;;0.32;0.32;;;;;;;23.12;100.00;101340.91;10461505;28;20095;-76
2023/10/10 22:24:25;;;;;;;0.13;0.13;;;;;;;22.90;100.00;101348.31;10463143;28;20087;-76
2023/10/10 22:29:27;;;;;;;0.47;0.45;;;;;;;22.96;100.00;101348.22;10460008;28;20041;-76
2023/10/10 22:34:29;;;;;;;1.35;0.52;;;;;;;23.06;100.00;101349.75;10457599;28;20051;-75
2023/10/10 22:39:31;;;;;;;0.70;0.20;;;;;;;22.82;100.00;101341.44;10461847;28;20102;-76
2023/10/10 22:44:33;;;;;;;0.60;0.40;;;;;;;22.76;100.00;101336.31;10461978;28;20048;-77
2023/10/10 22:49:35;;;;;;;2.63;1.00;;;;;;;22.74;100.00;101343.38;10461676;28;20052;-77
2023/10/10 22:54:37;;;;;;;0.20;0.20;;;;;;;22.95;100.00;101351.75;10461684;28;20500;-76
2023/10/10 22:59:41;;;;;;;0.55;0.38;;;;;;;22.76;100.00;101344.19;10444839;28;20139;-77
2023/10/10 23:04:43;;;;;;;2.10;0.20;;;;;;;22.77;100.00;101351.19;10462315;28;20095;-77
2023/10/10 23:09:44;;;;;;;0.80;0.13;;;;;;;22.65;100.00;101354.03;10434333;28;20049;-77
2023/10/10 23:14:46;;;;;;;0.08;0.08;;;;;;;22.74;100.00;101346.00;10445793;28;20060;-76
2023/10/10 23:19:49;;;;;;;0.70;0.20;;;;;;;22.65;100.00;101343.53;10450513;28;20064;-77
2023/10/10 23:24:52;;;;;;;0.10;0.10;;;;;;;22.40;100.00;101336.06;10432916;28;20129;-76
2023/10/10 23:29:54;;;;;;;0.32;0.25;;;;;;;22.22;100.00;101331.94;10452872;28;20040;-77
2023/10/10 23:34:56;;;;;;;0.22;0.22;;;;;;;22.34;100.00;101328.25;10459782;28;20473;-77
2023/10/10 23:39:59;;;;;;;0.88;0.47;;;;;;;22.48;100.00;101335.94;10433735;28;20140;-76
2023/10/10 23:45:01;;;;;;;0.65;0.30;;;;;;;22.25;100.00;101328.41;10459669;28;20049;-76
2023/10/10 23:50:05;;;;;;;2.85;1.42;;;;;;;22.08;100.00;101332.16;10459468;28;20045;-76
2023/10/10 23:55:11;;;;;;;0.13;0.13;;;;;;;22.13;100.00;101330.34;10440988;28;20046;-76
